Time;durP1;ratioP1;P1;durP2;ratioP2;P2;SDS_P1;SDS_P2;PMS_P1;PMS_P2;Temp;Humidity;BMP_temperature;BMP_pressure;BME280_temperature;BME280_humidity;BME280_pressure;Samples;Min_cycle;Max_cycle;Signal;HPM_P1;HPM_P2
2023/07/21 13:33:27;;;;;;;3.60;1.50;;;;;;;;;;108636;1262;1007877;-81
2023/07/21 13:35:54;;;;;;;5.60;1.30;;;;;;;;;;106128;1249;3458274;-86
2023/07/21 13:38:20;;;;;;;8.00;1.90;;;;;;;;;;108726;1258;22509;-82
2023/07/21 13:40:46;;;;;;;5.30;1.70;;;;;;;;;;108718;1258;25387;-84
2023/07/21 13:43:13;;;;;;;6.50;1.70;;;;;;;;;;108653;1258;24222;-87
2023/07/21 13:45:41;;;;;;;7.00;2.60;;;;;;;;;;108654;1249;24183;-82
2023/07/21 13:48:07;;;;;;;2.50;1.60;;;;;;;;;;108782;1258;24282;-80
2023/07/21 13:50:33;;;;;;;2.60;1.40;;;;;;;;;;109306;1249;22520;-83
2023/07/21 13:52:59;;;;;;;3.80;1.60;;;;;;;;;;109571;1246;22577;-81
2023/07/21 13:55:26;;;;;;;4.50;1.60;;;;;;;;;;109583;1239;22508;-81
2023/07/21 13:57:52;;;;;;;3.10;1.40;;;;;;;;;;109540;1249;22470;-84
2023/07/21 14:00:21;;;;;;;3.40;1.60;;;;;;;;;;109475;1249;24403;-79
2023/07/21 14:02:47;;;;;;;4.30;1.90;;;;;;;;;;109583;1249;22963;-79
2023/07/21 14:05:17;;;;;;;4.50;1.60;;;;;;;;;;109566;1239;22523;-83
2023/07/21 14:07:44;;;;;;;3.80;1.80;;;;;;;;;;109592;1249;24256;-85
2023/07/21 14:10:11;;;;;;;6.20;1.90;;;;;;;;;;109442;1246;25427;-82
2023/07/21 14:12:37;;;;;;;7.60;2.30;;;;;;;;;;109522;1249;22498;-80
2023/07/21 14:15:04;;;;;;;7.50;2.00;;;;;;;;;;109480;1241;22506;-81
2023/07/21 14:17:30;;;;;;;6.30;1.90;;;;;;;;;;109627;1245;22520;-84
2023/07/21 14:19:56;;;;;;;5.50;2.30;;;;;;;;;;109458;1249;22507;-84
2023/07/21 14:22:22;;;;;;;4.00;2.00;;;;;;;;;;109547;1249;25453;-81
2023/07/21 14:24:49;;;;;;;6.00;1.90;;;;;;;;;;109530;1235;24460;-81
2023/07/21 14:27:20;;;;;;;6.20;2.10;;;;;;;;;;109563;1246;22494;-81
2023/07/21 14:29:49;;;;;;;14.30;6.90;;;;;;;;;;109593;1246;25680;-81
2023/07/21 14:32:17;;;;;;;10.20;4.80;;;;;;;;;;109575;1249;22540;-87
2023/07/21 14:34:43;;;;;;;6.10;2.60;;;;;;;;;;109540;1249;22519;-80
2023/07/21 14:37:09;;;;;;;16.10;3.20;;;;;;;;;;109217;1241;22501;-84
2023/07/21 14:39:35;;;;;;;16.40;3.30;;;;;;;;;;109467;1249;22546;-86
2023/07/21 14:42:02;;;;;;;22.80;4.90;;;;;;;;;;109542;1249;22611;-83
2023/07/21 14:44:30;;;;;;;24.00;4.20;;;;;;;;;;109555;1247;23084;-80
2023/07/21 14:46:56;;;;;;;22.00;3.90;;;;;;;;;;109364;1242;25251;-83
2023/07/21 14:49:22;;;;;;;21.40;3.60;;;;;;;;;;109458;1249;24198;-83
2023/07/21 14:51:51;;;;;;;14.80;2.80;;;;;;;;;;109543;1249;25258;-84
2023/07/21 14:54:18;;;;;;;11.30;2.40;;;;;;;;;;109591;1249;22845;-83
2023/07/21 14:56:45;;;;;;;7.90;2.00;;;;;;;;;;109561;1239;25421;-81
2023/07/21 14:59:12;;;;;;;16.20;2.90;;;;;;;;;;109545;1249;24740;-84
2023/07/21 15:01:39;;;;;;;11.80;2.50;;;;;;;;;;109595;1249;22858;-80
2023/07/21 15:04:05;;;;;;;9.90;2.50;;;;;;;;;;109384;1249;25365;-84
2023/07/21 15:06:32;;;;;;;8.40;2.40;;;;;;;;;;109450;1249;22530;-80
2023/07/21 15:08:58;;;;;;;9.70;2.40;;;;;;;;;;109374;1249;22643;-80
2023/07/21 15:11:28;;;;;;;7.30;2.60;;;;;;;;;;109267;1249;22477;-81
2023/07/21 15:13:54;;;;;;;10.90;2.40;;;;;;;;;;109513;1249;24322;-83
2023/07/21 15:16:20;;;;;;;9.90;2.20;;;;;;;;;;109514;1243;24381;-81
2023/07/21 15:18:46;;;;;;;12.40;2.70;;;;;;;;;;109580;1249;25363;-83
2023/07/21 15:21:12;;;;;;;8.80;2.00;;;;;;;;;;109547;1249;22497;-82
2023/07/21 15:23:38;;;;;;;10.20;2.10;;;;;;;;;;109505;1249;22860;-81
2023/07/21 15:26:04;;;;;;;14.20;3.30;;;;;;;;;;109561;1249;22516;-85
2023/07/21 15:28:30;;;;;;;11.40;3.30;;;;;;;;;;109558;1249;24185;-81
2023/07/21 15:31:06;;;;;;;10.60;3.40;;;;;;;;;;109532;1249;24133;-84
2023/07/21 15:33:32;;;;;;;9.30;2.70;;;;;;;;;;109556;1249;22519;-79
2023/07/21 15:35:59;;;;;;;11.10;3.90;;;;;;;;;;109257;1250;24301;-80
2023/07/21 15:38:25;;;;;;;26.80;13.40;;;;;;;;;;109489;1240;25257;-81
2023/07/21 15:40:51;;;;;;;84.30;47.10;;;;;;;;;;109541;1249;22506;-83
2023/07/21 15:43:17;;;;;;;178.30;102.60;;;;;;;;;;109228;1249;26581;-82
2023/07/21 15:45:45;;;;;;;206.30;119.20;;;;;;;;;;109482;1249;25525;-82
2023/07/21 15:48:11;;;;;;;233.40;142.30;;;;;;;;;;109302;1241;22514;-85
2023/07/21 15:50:38;;;;;;;207.40;125.70;;;;;;;;;;109535;1249;22507;-80
2023/07/21 15:53:04;;;;;;;122.70;72.50;;;;;;;;;;109501;1249;24321;-80
2023/07/21 15:55:30;;;;;;;76.20;42.50;;;;;;;;;;109578;1249;25480;-80
2023/07/21 15:57:56;;;;;;;57.90;32.80;;;;;;;;;;109529;1249;22518;-86
2023/07/21 16:00:23;;;;;;;28.60;16.20;;;;;;;;;;109547;1249;23104;-84
2023/07/21 16:02:49;;;;;;;27.10;17.30;;;;;;;;;;109573;1249;24153;-80
2023/07/21 16:05:18;;;;;;;15.50;9.50;;;;;;;;;;109571;1247;22556;-83
2023/07/21 16:07:44;;;;;;;14.70;6.60;;;;;;;;;;109900;1236;22524;-84
2023/07/21 16:10:10;;;;;;;9.70;4.40;;;;;;;;;;109773;1247;24153;-82
2023/07/21 16:12:39;;;;;;;11.60;5.40;;;;;;;;;;109957;1248;25332;-79
2023/07/21 16:15:06;;;;;;;10.50;4.90;;;;;;;;;;109900;1247;22495;-85
2023/07/21 16:17:32;;;;;;;8.80;3.80;;;;;;;;;;109848;1244;22537;-85
2023/07/21 16:20:05;;;;;;;13.20;5.30;;;;;;;;;;109789;1247;22585;-80
2023/07/21 16:22:35;;;;;;;18.30;7.00;;;;;;;;;;109921;1247;25419;-84
2023/07/21 16:25:01;;;;;;;13.40;5.20;;;;;;;;;;109782;1247;22540;-84
2023/07/21 16:27:27;;;;;;;11.30;3.80;;;;;;;;;;109858;1232;22505;-81
2023/07/21 16:29:53;;;;;;;8.50;3.40;;;;;;;;;;109832;1247;25272;-83
2023/07/21 16:32:19;;;;;;;8.50;3.20;;;;;;;;;;109759;1247;22510;-86
2023/07/21 16:34:51;;;;;;;10.80;3.10;;;;;;;;;;109802;1247;24169;-83
2023/07/21 16:37:18;;;;;;;9.90;2.70;;;;;;;;;;109820;1232;22733;-84
2023/07/21 16:39:47;;;;;;;7.80;2.50;;;;;;;;;;109569;1247;23310;-83
2023/07/21 16:42:13;;;;;;;20.80;12.20;;;;;;;;;;109936;1248;22517;-82
2023/07/21 16:44:39;;;;;;;19.20;13.30;;;;;;;;;;109541;1247;24400;-83
2023/07/21 16:47:05;;;;;;;15.10;8.80;;;;;;;;;;109613;1246;24174;-79
2023/07/21 16:49:31;;;;;;;12.50;7.00;;;;;;;;;;109825;1247;22613;-84
2023/07/21 16:51:58;;;;;;;12.70;6.60;;;;;;;;;;109786;1246;25329;-81
2023/07/21 16:54:28;;;;;;;9.00;3.80;;;;;;;;;;109768;1247;22496;-82
2023/07/21 16:57:04;;;;;;;6.70;2.70;;;;;;;;;;109795;1247;22502;-81
2023/07/21 16:59:33;;;;;;;5.80;2.00;;;;;;;;;;109697;1240;24339;-84
2023/07/21 17:01:59;;;;;;;6.10;2.20;;;;;;;;;;109887;1248;22614;-81
2023/07/21 17:04:30;;;;;;;6.90;2.20;;;;;;;;;;109660;1248;22610;-79
2023/07/21 17:06:56;;;;;;;4.50;2.10;;;;;;;;;;109893;1248;22609;-87
2023/07/21 17:09:25;;;;;;;5.10;2.30;;;;;;;;;;109530;1247;22502;-84
2023/07/21 17:11:53;;;;;;;7.10;2.60;;;;;;;;;;109827;1247;25254;-81
2023/07/21 17:14:19;;;;;;;6.60;2.30;;;;;;;;;;109721;1247;23847;-79
2023/07/21 17:16:45;;;;;;;6.40;2.40;;;;;;;;;;109652;1247;25294;-81
2023/07/21 17:19:11;;;;;;;6.60;2.40;;;;;;;;;;109826;1247;22720;-82
2023/07/21 17:21:37;;;;;;;5.80;2.40;;;;;;;;;;109580;1248;22871;-80
2023/07/21 17:24:04;;;;;;;7.30;2.80;;;;;;;;;;109825;1247;22534;-84
2023/07/21 17:26:30;;;;;;;7.10;3.20;;;;;;;;;;109904;1247;22494;-81
2023/07/21 17:28:56;;;;;;;8.00;2.60;;;;;;;;;;109648;1239;25339;-80
2023/07/21 17:31:22;;;;;;;5.80;2.60;;;;;;;;;;109592;1247;25254;-81
2023/07/21 17:33:51;;;;;;;5.70;2.50;;;;;;;;;;109611;1247;22584;-85
2023/07/21 17:36:17;;;;;;;5.70;2.90;;;;;;;;;;109800;1247;25255;-85
2023/07/21 17:38:43;;;;;;;7.20;2.80;;;;;;;;;;109861;1232;22479;-85
2023/07/21 17:41:09;;;;;;;6.40;2.60;;;;;;;;;;109643;1248;24242;-82
2023/07/21 17:43:36;;;;;;;6.40;2.60;;;;;;;;;;109868;1247;25298;-84
2023/07/21 17:46:03;;;;;;;6.50;2.40;;;;;;;;;;109789;1247;25026;-84
2023/07/21 17:48:29;;;;;;;6.20;2.30;;;;;;;;;;109478;1247;25349;-80
2023/07/21 17:50:55;;;;;;;5.50;2.10;;;;;;;;;;109826;1238;22498;-85
2023/07/21 17:53:22;;;;;;;7.20;2.40;;;;;;;;;;109657;1248;22509;-82
2023/07/21 17:55:48;;;;;;;5.30;1.90;;;;;;;;;;109787;1247;22496;-80
2023/07/21 17:58:14;;;;;;;4.60;2.10;;;;;;;;;;109900;1247;25303;-84
2023/07/21 18:00:41;;;;;;;4.40;2.20;;;;;;;;;;109635;1248;25445;-81
2023/07/21 18:03:10;;;;;;;7.00;2.10;;;;;;;;;;109791;1248;22465;-82
2023/07/21 18:05:38;;;;;;;5.50;1.90;;;;;;;;;;109941;1247;22500;-80
2023/07/21 18:08:05;;;;;;;5.30;2.20;;;;;;;;;;109801;1247;24172;-80
2023/07/21 18:10:31;;;;;;;6.60;2.20;;;;;;;;;;110148;1239;23850;-78
2023/07/21 18:12:58;;;;;;;8.50;2.20;;;;;;;;;;109796;1248;24421;-81
2023/07/21 18:15:25;;;;;;;6.40;2.50;;;;;;;;;;109761;1248;22491;-83
2023/07/21 18:17:51;;;;;;;9.20;2.50;;;;;;;;;;109879;1247;25325;-81
2023/07/21 18:20:18;;;;;;;6.30;2.20;;;;;;;;;;109872;1248;22492;-84
2023/07/21 18:22:44;;;;;;;6.40;2.40;;;;;;;;;;109812;1247;25343;-83
2023/07/21 18:25:12;;;;;;;6.30;2.50;;;;;;;;;;109871;1248;25250;-79
2023/07/21 18:27:39;;;;;;;5.00;2.40;;;;;;;;;;109881;1247;25253;-80
2023/07/21 18:30:08;;;;;;;5.80;2.30;;;;;;;;;;109772;1236;22499;-86
2023/07/21 18:32:37;;;;;;;6.90;2.60;;;;;;;;;;109915;1244;22491;-85
2023/07/21 18:35:04;;;;;;;5.90;2.20;;;;;;;;;;109741;1247;22505;-83
2023/07/21 18:37:36;;;;;;;7.60;2.60;;;;;;;;;;109612;1248;22502;-83
2023/07/21 18:40:09;;;;;;;6.70;2.20;;;;;;;;;;109891;1234;22501;-86
2023/07/21 18:42:35;;;;;;;6.50;2.20;;;;;;;;;;109619;1248;22600;-84
2023/07/21 18:45:04;;;;;;;7.70;2.40;;;;;;;;;;109591;1247;22676;-84
2023/07/21 18:47:30;;;;;;;8.80;2.60;;;;;;;;;;109571;1248;24306;-84
2023/07/21 18:49:56;;;;;;;6.90;2.50;;;;;;;;;;109872;1241;24217;-84
2023/07/21 18:52:22;;;;;;;7.40;2.20;;;;;;;;;;109761;1247;25676;-86
2023/07/21 18:54:49;;;;;;;5.70;2.00;;;;;;;;;;109927;1247;22497;-81
2023/07/21 18:57:15;;;;;;;8.10;2.40;;;;;;;;;;109658;1247;22502;-82
2023/07/21 18:59:41;;;;;;;7.60;2.20;;;;;;;;;;109637;1248;25375;-83
2023/07/21 19:02:09;;;;;;;6.10;1.90;;;;;;;;;;109842;1237;22500;-81
2023/07/21 19:04:37;;;;;;;7.30;2.20;;;;;;;;;;110028;1247;23200;-83
2023/07/21 19:07:03;;;;;;;5.30;1.80;;;;;;;;;;109921;1247;25209;-82
2023/07/21 19:09:30;;;;;;;6.90;2.20;;;;;;;;;;109652;1232;22505;-81
2023/07/21 19:11:56;;;;;;;7.20;2.10;;;;;;;;;;109923;1247;22508;-83
2023/07/21 19:14:22;;;;;;;5.30;2.00;;;;;;;;;;109715;1247;22496;-88
2023/07/21 19:16:48;;;;;;;4.60;2.00;;;;;;;;;;109990;1247;24265;-81
2023/07/21 19:19:14;;;;;;;5.50;2.20;;;;;;;;;;109995;1247;22496;-82
2023/07/21 19:21:40;;;;;;;6.90;2.40;;;;;;;;;;109993;1244;22745;-82
2023/07/21 19:24:06;;;;;;;4.80;2.10;;;;;;;;;;109670;1247;22494;-85
2023/07/21 19:26:32;;;;;;;6.00;2.20;;;;;;;;;;109896;1247;22542;-84
2023/07/21 19:28:58;;;;;;;5.20;2.40;;;;;;;;;;109914;1247;25449;-81
2023/07/21 19:31:24;;;;;;;5.90;2.40;;;;;;;;;;109894;1237;22516;-89
2023/07/21 19:33:50;;;;;;;6.90;2.80;;;;;;;;;;109917;1247;25304;-81
2023/07/21 19:36:16;;;;;;;7.20;2.80;;;;;;;;;;109960;1247;22607;-87
2023/07/21 19:38:42;;;;;;;9.80;3.60;;;;;;;;;;109839;1247;22530;-81
2023/07/21 19:41:10;;;;;;;7.90;3.50;;;;;;;;;;109840;1231;22464;-80
2023/07/21 19:43:37;;;;;;;8.50;4.40;;;;;;;;;;109951;1247;22512;-87
2023/07/21 19:46:03;;;;;;;8.80;4.40;;;;;;;;;;109971;1247;24259;-87
2023/07/21 19:48:29;;;;;;;9.20;4.20;;;;;;;;;;109838;1247;23140;-80
2023/07/21 19:50:55;;;;;;;7.50;3.80;;;;;;;;;;109703;1247;24170;-81
2023/07/21 19:53:21;;;;;;;5.90;2.50;;;;;;;;;;109793;1238;22824;-84
2023/07/21 19:55:47;;;;;;;6.00;2.70;;;;;;;;;;109672;1247;25460;-84
2023/07/21 19:58:13;;;;;;;7.90;3.70;;;;;;;;;;109871;1247;22731;-85
2023/07/21 20:00:41;;;;;;;6.80;3.10;;;;;;;;;;109989;1247;25304;-80
2023/07/21 20:03:07;;;;;;;8.00;2.80;;;;;;;;;;109816;1242;25420;-81
2023/07/21 20:05:35;;;;;;;7.10;2.90;;;;;;;;;;109723;1247;22458;-85
2023/07/21 20:08:01;;;;;;;6.70;3.20;;;;;;;;;;109873;1247;22558;-84
2023/07/21 20:10:27;;;;;;;7.50;3.30;;;;;;;;;;109662;1247;24222;-80
2023/07/21 20:12:53;;;;;;;6.20;3.10;;;;;;;;;;109847;1237;25277;-83
2023/07/21 20:15:19;;;;;;;6.60;2.90;;;;;;;;;;109705;1247;25380;-80
2023/07/21 20:17:45;;;;;;;6.80;2.90;;;;;;;;;;109717;1247;23839;-82
2023/07/21 20:20:12;;;;;;;5.80;2.70;;;;;;;;;;109678;1247;25241;-81
2023/07/21 20:22:39;;;;;;;6.50;2.50;;;;;;;;;;109902;1247;22887;-80
2023/07/21 20:25:06;;;;;;;6.00;2.40;;;;;;;;;;109929;1247;25217;-81
2023/07/21 20:27:32;;;;;;;6.20;2.30;;;;;;;;;;109704;1247;22730;-84
2023/07/21 20:30:02;;;;;;;5.70;2.00;;;;;;;;;;109674;1247;24329;-84
2023/07/21 20:32:28;;;;;;;6.30;2.20;;;;;;;;;;109703;1247;22589;-81
2023/07/21 20:34:55;;;;;;;5.60;2.10;;;;;;;;;;109887;1247;22498;-87
2023/07/21 20:37:21;;;;;;;4.90;1.70;;;;;;;;;;109852;1247;22563;-82
2023/07/21 20:39:47;;;;;;;6.90;2.10;;;;;;;;;;109878;1246;22509;-86
2023/07/21 20:42:14;;;;;;;4.70;2.20;;;;;;;;;;109887;1241;22498;-81
2023/07/21 20:44:40;;;;;;;6.60;2.60;;;;;;;;;;109593;1247;22496;-80
2023/07/21 20:47:07;;;;;;;6.50;2.50;;;;;;;;;;109738;1247;24313;-85
2023/07/21 20:49:33;;;;;;;6.30;2.70;;;;;;;;;;109943;1247;24183;-84
2023/07/21 20:51:59;;;;;;;7.20;2.60;;;;;;;;;;109674;1247;25362;-80
2023/07/21 20:54:25;;;;;;;6.70;2.50;;;;;;;;;;109860;1247;22602;-81
2023/07/21 20:56:51;;;;;;;6.80;2.60;;;;;;;;;;109868;1247;25267;-82
2023/07/21 20:59:17;;;;;;;8.30;3.10;;;;;;;;;;109859;1247;22594;-78
2023/07/21 21:01:47;;;;;;;6.80;2.50;;;;;;;;;;109824;1247;22527;-82
2023/07/21 21:04:17;;;;;;;7.30;2.60;;;;;;;;;;109846;1231;25401;-79
2023/07/21 21:06:43;;;;;;;5.80;2.50;;;;;;;;;;109827;1247;24201;-85
2023/07/21 21:09:09;;;;;;;7.80;2.90;;;;;;;;;;109674;1247;23848;-78
2023/07/21 21:11:36;;;;;;;7.30;3.00;;;;;;;;;;109566;1247;25563;-82
2023/07/21 21:14:02;;;;;;;9.20;2.60;;;;;;;;;;109701;1247;24040;-83
2023/07/21 21:16:28;;;;;;;7.30;2.70;;;;;;;;;;109747;1247;22680;-79
2023/07/21 21:18:58;;;;;;;6.20;2.30;;;;;;;;;;109843;1247;25354;-84
2023/07/21 21:21:25;;;;;;;6.20;2.30;;;;;;;;;;109707;1247;22492;-84
2023/07/21 21:23:51;;;;;;;5.70;2.10;;;;;;;;;;109829;1237;22506;-82
2023/07/21 21:26:17;;;;;;;6.90;2.00;;;;;;;;;;109878;1246;22496;-86
2023/07/21 21:28:43;;;;;;;7.00;2.20;;;;;;;;;;109844;1247;24425;-86
2023/07/21 21:31:09;;;;;;;8.90;2.50;;;;;;;;;;109895;1247;22496;-81
2023/07/21 21:33:35;;;;;;;6.80;3.00;;;;;;;;;;109868;1237;25482;-80
2023/07/21 21:36:01;;;;;;;7.30;2.20;;;;;;;;;;109825;1247;22487;-84
2023/07/21 21:38:28;;;;;;;7.80;2.60;;;;;;;;;;109781;1247;22498;-82
2023/07/21 21:40:54;;;;;;;6.20;2.40;;;;;;;;;;109654;1247;22503;-81
2023/07/21 21:43:20;;;;;;;6.20;2.50;;;;;;;;;;109804;1233;22439;-86
2023/07/21 21:45:46;;;;;;;6.20;2.60;;;;;;;;;;109827;1247;22517;-79
2023/07/21 21:48:12;;;;;;;5.50;2.10;;;;;;;;;;109884;1247;23884;-82
2023/07/21 21:50:42;;;;;;;6.30;2.30;;;;;;;;;;109852;1247;22584;-80
2023/07/21 21:53:08;;;;;;;4.50;2.00;;;;;;;;;;109772;1247;24293;-79
2023/07/21 21:55:34;;;;;;;4.10;1.90;;;;;;;;;;109870;1244;24037;-81
2023/07/21 21:58:00;;;;;;;4.20;2.00;;;;;;;;;;109596;1247;22509;-82
2023/07/21 22:00:26;;;;;;;6.60;2.20;;;;;;;;;;109596;1247;22499;-79
2023/07/21 22:02:53;;;;;;;5.00;2.10;;;;;;;;;;109786;1247;22615;-83
2023/07/21 22:05:19;;;;;;;5.70;2.30;;;;;;;;;;109766;1247;24193;-82
2023/07/21 22:07:45;;;;;;;4.90;2.00;;;;;;;;;;109882;1247;22551;-82
2023/07/21 22:10:11;;;;;;;6.00;2.30;;;;;;;;;;109937;1247;24201;-81
2023/07/21 22:12:37;;;;;;;5.90;2.20;;;;;;;;;;109815;1244;22568;-84
2023/07/21 22:15:03;;;;;;;5.40;2.50;;;;;;;;;;109744;1237;22507;-80
2023/07/21 22:17:30;;;;;;;6.50;2.20;;;;;;;;;;109483;1247;22517;-80
2023/07/21 22:19:56;;;;;;;6.30;2.60;;;;;;;;;;109893;1247;24222;-85
2023/07/21 22:22:26;;;;;;;6.50;2.20;;;;;;;;;;109926;1244;25319;-82
2023/07/21 22:24:54;;;;;;;4.60;2.10;;;;;;;;;;109811;1237;22746;-83
2023/07/21 22:27:20;;;;;;;5.20;2.10;;;;;;;;;;109854;1247;22621;-82
2023/07/21 22:29:46;;;;;;;4.70;2.30;;;;;;;;;;109923;1243;22877;-84
2023/07/21 22:32:12;;;;;;;6.90;2.40;;;;;;;;;;109677;1247;22458;-83
2023/07/21 22:34:38;;;;;;;8.60;2.50;;;;;;;;;;109711;1235;24332;-82
2023/07/21 22:37:04;;;;;;;6.00;2.40;;;;;;;;;;109519;1247;23854;-82
2023/07/21 22:39:30;;;;;;;5.20;2.40;;;;;;;;;;109892;1247;24130;-80
2023/07/21 22:41:57;;;;;;;5.30;2.30;;;;;;;;;;109854;1247;22499;-85
2023/07/21 22:44:23;;;;;;;4.90;2.10;;;;;;;;;;109878;1247;22673;-78
2023/07/21 22:46:49;;;;;;;5.70;2.50;;;;;;;;;;109522;1242;22599;-82
2023/07/21 22:49:15;;;;;;;7.60;2.50;;;;;;;;;;109716;1247;22576;-84
2023/07/21 22:51:41;;;;;;;6.10;2.40;;;;;;;;;;109937;1247;22514;-82
2023/07/21 22:54:08;;;;;;;6.30;2.80;;;;;;;;;;109881;1247;22506;-81
2023/07/21 22:56:34;;;;;;;6.40;2.70;;;;;;;;;;109833;1236;22463;-81
2023/07/21 22:59:00;;;;;;;6.20;2.80;;;;;;;;;;109583;1247;22504;-81
2023/07/21 23:01:26;;;;;;;5.60;2.50;;;;;;;;;;109768;1247;24185;-86
2023/07/21 23:03:52;;;;;;;6.50;2.50;;;;;;;;;;109840;1247;25231;-82
2023/07/21 23:06:19;;;;;;;5.60;2.50;;;;;;;;;;109829;1244;22493;-80
2023/07/21 23:08:44;;;;;;;5.30;2.50;;;;;;;;;;109966;1247;24088;-87
2023/07/21 23:11:10;;;;;;;5.40;2.70;;;;;;;;;;109689;1247;22634;-81
2023/07/21 23:13:36;;;;;;;6.60;2.80;;;;;;;;;;109702;1247;24364;-79
2023/07/21 23:16:03;;;;;;;6.60;2.90;;;;;;;;;;109729;1246;22955;-84
2023/07/21 23:18:32;;;;;;;5.90;2.50;;;;;;;;;;109789;1247;23869;-82
2023/07/21 23:20:58;;;;;;;6.90;2.80;;;;;;;;;;109919;1247;22577;-80
2023/07/21 23:23:24;;;;;;;9.20;2.70;;;;;;;;;;109788;1244;22582;-86
2023/07/21 23:25:55;;;;;;;6.40;2.90;;;;;;;;;;109812;1237;22508;-82
2023/07/21 23:28:21;;;;;;;6.70;2.70;;;;;;;;;;109864;1247;22507;-84
2023/07/21 23:30:47;;;;;;;6.80;2.80;;;;;;;;;;109855;1247;22565;-86
2023/07/21 23:33:13;;;;;;;6.10;2.80;;;;;;;;;;109841;1247;24172;-83
2023/07/21 23:35:42;;;;;;;6.00;2.80;;;;;;;;;;109825;1232;22502;-79
2023/07/21 23:38:08;;;;;;;6.50;2.60;;;;;;;;;;109653;1246;25333;-82
2023/07/21 23:40:34;;;;;;;7.90;3.00;;;;;;;;;;109873;1246;22487;-83
2023/07/21 23:43:00;;;;;;;6.50;2.80;;;;;;;;;;109684;1247;24246;-82
2023/07/21 23:45:29;;;;;;;17.60;3.00;;;;;;;;;;109907;1246;24165;-85
2023/07/21 23:47:56;;;;;;;9.00;3.00;;;;;;;;;;109784;1237;22505;-81
2023/07/21 23:50:25;;;;;;;6.30;2.90;;;;;;;;;;109714;1247;25212;-82
2023/07/21 23:52:51;;;;;;;6.00;2.90;;;;;;;;;;109814;1247;23852;-82
2023/07/21 23:55:17;;;;;;;6.40;2.80;;;;;;;;;;109751;1247;23856;-84
2023/07/21 23:57:46;;;;;;;5.70;2.60;;;;;;;;;;109815;1237;24294;-81
